Assab International Airport

HHSB · Region des südlichen Roten Meeres, Eritrea

METAR-Geschichte HHSB · Assab International Airport

Unten siehst du die METARs der letzten paar Tage. Wähle ein Jahr, um ältere METARs ab dem Jahr 2007 zu durchsuchen.

15. Juli 2024

Uhrzeit Code Wetter Temp. Sichtweite Wolkendecke Wind METAR/SPECI
04:00
I
32 °C 4 km - 100° 100° 7 kt METAR OYAA 150100Z 10007KT 4000 DU FEW020 SCT100 32/29 Q1000 NOSIG
03:00
I
32 °C 4 km - 100° 100° 8 kt METAR OYAA 150000Z 10008KT 4000 DU FEW020 SCT100 32/29 Q0999 NOSIG
02:00
I
32 °C 4 km - 080° 080° 12 kt METAR OYAA 142300Z 08012KT 4000 DU FEW020 SCT100 32/28 Q0999 NOSIG
01:00
I
33 °C 4 km - 200° 200° 3 kt METAR OYAA 142200Z 20003KT 4000 DU FEW020 SCT100 33/27 Q0998 NOSIG
00:00
I
33 °C 4 km - 280° 280° 6 kt METAR OYAA 142100Z 28006KT 4000 DU FEW020 SCT100 33/26 Q0998 NOSIG

14. Juli 2024

Uhrzeit Code Wetter Temp. Sichtweite Wolkendecke Wind METAR/SPECI
23:00
I
33 °C 4 km - 250° 250° 10 kt METAR OYAA 142000Z 25010KT 4000 DU FEW020 SCT100 33/26 Q0999 NOSIG
22:00
I
33 °C 3 km - 100° 100° 4 kt METAR OYAA 141900Z 10004KT 3000 DU FEW020 SCT100 33/26 Q0999 NOSIG
21:00
I
33 °C 3 km - 090° 090° 6 kt METAR OYAA 141800Z 09006KT 3000 DU FEW020 SCT100 33/27 Q0999 NOSIG
20:00
I
33 °C 3 km - 090° 090° 5 kt METAR OYAA 141700Z 09005KT 3000 DU FEW020 SCT100 33/26 Q0998 NOSIG
19:00
I
33 °C 3 km - 110° 110° 7 kt METAR OYAA 141600Z 11007KT 3000 DU FEW020 SCT100 33/26 Q0998 NOSIG
18:00
I
35 °C 2 km - 090° 090° 4 kt METAR OYAA 141500Z 09004KT 2000 DU FEW020 SCT100 35/24 Q0998 NOSIG
17:00
I
37 °C 2 km - 240° 240° 8 kt METAR OYAA 141400Z 24008KT 2000 DU FEW020 SCT100 37/23 Q0997 NOSIG
16:00
I
37 °C 2 km 8.000 ft 220° 220° 11 kt METAR OYAA 141300Z 22011KT 2000 DU FEW030 BKN080 37/22 Q0998 NOSIG
15:00
I
36 °C 2 km 8.000 ft 240° 240° 13 kt METAR OYAA 141200Z 24013KT 2000 DU FEW030 BKN080 36/25 Q0998 NOSIG
14:00
I
36 °C 2 km 8.000 ft 230° 230° 17 kt METAR OYAA 141100Z 23017KT 2000 DU FEW030 BKN080 36/26 Q0999 NOSIG
13:00
I
35 °C 3 km 8.000 ft 250° 250° 16 kt METAR OYAA 141000Z 25016KT 3000 DU FEW030 BKN080 35/26 Q1000 NOSIG
12:00
I
34 °C 3 km 8.000 ft 230° 230° 17 kt METAR OYAA 140900Z 23017KT 3000 DU FEW030 BKN080 34/26 Q1001 NOSIG
11:00
I
34 °C 2 km 8.000 ft 360° 360° 0 kt METAR OYAA 140800Z25016KT 2000 DU FEW020 BKN080 34/26 Q1001 NOSIG
10:00
I
32 °C 1,5 km 8.000 ft 250° 250° 15 kt METAR OYAA 140700Z 25015KT 1500 BLSA FEW020 BKN080 32/28 Q1003 NOSIG
09:00
I
33 °C 3 km 8.000 ft 360° 360° 0 kt METAR OYAA 140600Z 25012G22 3000 DU FEW020 BKN080 33/28 Q1001 NOSIG
08:00
M
33 °C 5 km 8.000 ft 230° 230° 4 kt METAR OYAA 140500Z 23004KT 5000 DU FEW020 BKN080 33/28 Q1003 NOSIG
07:00
M
32 °C 6 km 8.000 ft Var Var 2 kt METAR OYAA 140400Z VRB02KT 6000 FEW020 BKN080 32/27 Q1004 NOSIG
06:00
M
32 °C 6 km 8.000 ft Var Var 2 kt METAR OYAA 140300Z VRB02KT 6000 TS FEW035CB BKN080 32/27 Q1003 NOSIG
04:00
M
32 °C 6 km - 120° 120° 4 kt METAR OYAA 140100Z 12004KT 6000 FEW020 SCT100 32/27 Q1002 NOSIG
03:00
M
32 °C 6 km - 050° 050° 5 kt METAR OYAA 140000Z 05005KT 6000 FEW020 SCT100 32/26 Q1001 NOSIG
02:00
M
32 °C 6 km - Var Var 2 kt METAR OYAA 132300Z VRB02KT 6000 FEW020 SCT100 32/26 Q1000 NOSIG
01:00
M
33 °C 7 km - 170° 170° 6 kt METAR OYAA 132200Z 17006KT 7000 FEW020 SCT100 33/26 Q1001 NOSIG
00:00
M
33 °C 7 km - 070° 070° 5 kt METAR OYAA 132100Z 07005KT 7000 FEW020 SCT100 33/25 Q1001 NOSIG

13. Juli 2024

Uhrzeit Code Wetter Temp. Sichtweite Wolkendecke Wind METAR/SPECI
23:00
M
32 °C 7 km - 070° 070° 10 kt METAR OYAA 132000Z 07010KT 7000 FEW020 SCT100 32/26 Q1001 NOSIG
22:00
M
33 °C 7 km 10.000 ft 070° 070° 6 kt METAR OYAA 131900Z 07006KT 7000 FEW020 BKN100 33/26 Q1000 NOSIG
21:00
M
33 °C 7 km 10.000 ft 080° 080° 8 kt METAR OYAA 131800Z 08008KT 7000 FEW020 BKN100 33/26 Q1000 NOSIG
20:00
M
35 °C 7 km 10.000 ft 300° 300° 6 kt METAR OYAA 131700Z 30006KT 7000 FEW035CB BKN100 35/24 Q1000 NOSIG
19:00
M
35 °C 7 km 10.000 ft 250° 250° 7 kt METAR OYAA 131600Z 25007KT 7000 FEW035CB BKN100 35/24 Q0999 NOSIG
17:00
M
36 °C 5 km 10.000 ft 260° 260° 14 kt METAR OYAA 131400Z 26014KT 5000 DU FEW035CB BKN100 36/25 Q0999 NOSIG
16:00
M
36 °C 5 km 10.000 ft 250° 250° 13 kt METAR OYAA 131300Z 25013KT 5000 DU FEW035CB BKN100 36/23 Q0999 NOSIG
15:00
M
37 °C 5 km - 250° 250° 10 kt METAR OYAA 131200Z 25010KT 5000 DU NSC 37/23 Q1000 NOSIG
14:00
M
37 °C 5 km - 240° 240° 20 - 30 kt METAR OYAA 131100Z 24020G30KT 5000 DU NSC 37/23 Q1001 NOSIG
13:30
M
37 °C 5 km - 240° 240° 18 - 28 kt METAR OYAA 131030Z 24018G28KT 5000 BLSA NSC 37/23 Q1002
12:00
M
35 °C 6 km - 200° 200° 17 kt METAR OYAA 130900Z 20017KT 6000 NSC 35/24 Q1002 NOSIG
11:00
M
37 °C 6 km - 240° 240° 17 kt METAR OYAA 130800Z 24017KT 6000 NSC 37/22 Q1003 NOSIG
09:00
M
34 °C 5 km - 210° 210° 16 kt METAR OYAA 130600Z 21016KT 5000 DU NSC 34/25 Q1004 NOSIG
08:00
M
34 °C 5 km - 010° 010° 4 kt METAR OYAA 130500Z 01004KT 5000 DU NSC 34/26 Q1003 NOSIG
07:00
I
33 °C 3 km - 250° 250° 8 kt METAR OYAA 130400Z 25008KT 3000 DU NSC 33/24 Q1002 NOSIG
06:00
I
32 °C 3 km - 250° 250° 6 kt METAR OYAA 130300Z 25006KT 3000 DU NSC 32/25 Q1001 NOSIG
05:00
I
32 °C 3 km 8.000 ft 290° 290° 12 kt METAR OYAA 130200Z 29012KT 3000 DU FEW020 BKN080 32/27 Q1001 NOSIG
04:00
I
33 °C 4 km 8.000 ft 250° 250° 16 kt METAR OYAA 130100Z 25016KT 4000 DU FEW020 BKN080 33/27 Q0998 NOSIG
03:30
I
33 °C 4 km 8.000 ft 180° 180° 8 kt METAR OYAA 130030Z 18008KT 4000 TS FEW035CB BKN080 33/26 Q1000 NOSIG
02:00
I
33 °C 4 km 8.000 ft 100° 100° 9 kt METAR OYAA 122300Z 10009KT 4000 TS FEW020 FEW035CB BKN080 33/28 Q1000 NOSIG
01:30
I
34 °C 3 km 8.000 ft 030° 030° 8 kt METAR OYAA 122230Z 03008KT 3000 TS FEW020 FEW035CB BKN080 34/26 Q1000 NOSIG
00:00
I
34 °C 3 km 8.000 ft 070° 070° 10 kt METAR OYAA 122100Z 07010KT 3000 TS FEW020 FEW035CB BKN080 34/25 Q1001

12. Juli 2024

Uhrzeit Code Wetter Temp. Sichtweite Wolkendecke Wind METAR/SPECI
23:00
M
34 °C 5 km 8.000 ft 090° 090° 6 kt METAR OYAA 122000Z 09006KT 5000 DU FEW020 BKN080 34/26 Q1000 NOSIG
22:00
M
34 °C 5 km 8.000 ft 120° 120° 6 kt METAR OYAA 121900Z 12006KT 5000 DU FEW020 BKN080 34/27 NOSIG
21:00
M
34 °C 5 km 8.000 ft 070° 070° 4 kt METAR OYAA 121800Z 07004KT 5000 DU FEW020 FEW035CB BKN080 34/24 Q1000
20:30
M
34 °C 6 km 8.000 ft 140° 140° 4 kt METAR OYAA 121730Z 14004KT 6000 TS FEW035CB BKN080 34/27 Q1000 NOSIG
20:00
M
34 °C 6 km 8.000 ft 140° 140° 4 kt METAR OYAA 121700Z 14004KT 6000 FEW035CB BKN080 34/27 Q1000 NOSIG
19:00
M
0 °C 6 km - 220° 220° 4 kt METAR OYAA 121600Z 22004KT 6000 RERA NSC 35/25 Q0999 NOSIG
18:00
M
35 °C 6 km - 230° 230° 7 kt METAR OYAA 121500Z 23007KT 6000 NSC 35/25 Q0999 NOSIG
17:00
M
35 °C 6 km - 250° 250° 9 kt METAR OYAA 121400Z 25009KT 6000 NSC 35/26 Q0999 NOSIG
16:00
M
37 °C 6 km - 360° 360° 0 kt METAR OYAA 121300Z 2014KT 6000 NSC 37/26 Q0999
15:00
M
36 °C 6 km - 140° 140° 10 kt METAR OYAA 121200Z 14010KT 6000 NSC 36/24 Q1000 NOSIG
14:00
M
36 °C 6 km - 130° 130° 11 kt METAR OYAA 121100Z 13011KT 6000 NSC 36/27 Q1000 NOSIG
13:00
M
38 °C 6 km - 240° 240° 10 kt METAR OYAA 121000Z 24010KT 6000 FEW020 SCT100 38/26 Q1001 NOSIG
12:00
M
36 °C 6 km 10.000 ft 140° 140° 9 kt METAR OYAA 120900Z 14009KT 6000 FEW018 BKN100 36/27 Q1002
11:00
M
34 °C 6 km 10.000 ft 140° 140° 7 kt METAR OYAA 120800Z 14007KT 6000 FEW018 BKN100 34/26 Q1003
10:00
M
33 °C 6 km 10.000 ft 090° 090° 6 kt METAR OYAA 120700Z 09006KT 6000 FEW018 BKN100 33/26 Q1003
09:00
M
34 °C 6 km 10.000 ft 090° 090° 4 kt METAR OYAA 120600Z 09004KT 6000 FEW018 BKN100 34/26 Q1004
Eine Änderung melden